sensor_id;sensor_type;location;lat;lon;timestamp;temperature;humidity
45491;DHT22;31237;45.586;13.782;2024-01-10T00:01:40;-0.90;76.20
45491;DHT22;31237;45.586;13.782;2024-01-10T00:04:05;-0.90;76.40
45491;DHT22;31237;45.586;13.782;2024-01-10T00:06:31;-0.90;76.60
45491;DHT22;31237;45.586;13.782;2024-01-10T00:08:57;-0.90;76.50
45491;DHT22;31237;45.586;13.782;2024-01-10T00:11:22;-0.90;76.60
45491;DHT22;31237;45.586;13.782;2024-01-10T00:13:48;-0.90;77.20
45491;DHT22;31237;45.586;13.782;2024-01-10T00:16:14;-0.90;76.50
45491;DHT22;31237;45.586;13.782;2024-01-10T00:18:40;-0.90;76.50
45491;DHT22;31237;45.586;13.782;2024-01-10T00:21:07;-0.90;76.40
45491;DHT22;31237;45.586;13.782;2024-01-10T00:23:32;-0.90;76.50
45491;DHT22;31237;45.586;13.782;2024-01-10T00:25:58;-0.90;76.50
45491;DHT22;31237;45.586;13.782;2024-01-10T00:28:25;-0.90;76.70
45491;DHT22;31237;45.586;13.782;2024-01-10T00:30:51;-0.90;76.70
45491;DHT22;31237;45.586;13.782;2024-01-10T00:33:17;-0.90;76.90
45491;DHT22;31237;45.586;13.782;2024-01-10T00:35:43;-0.90;76.80
45491;DHT22;31237;45.586;13.782;2024-01-10T00:38:09;-0.90;76.80
45491;DHT22;31237;45.586;13.782;2024-01-10T00:40:35;-0.90;76.90
45491;DHT22;31237;45.586;13.782;2024-01-10T00:43:01;-1.00;76.90
45491;DHT22;31237;45.586;13.782;2024-01-10T00:45:27;-1.00;77.00
45491;DHT22;31237;45.586;13.782;2024-01-10T00:47:53;-1.00;77.20
45491;DHT22;31237;45.586;13.782;2024-01-10T00:50:18;-1.00;77.20
45491;DHT22;31237;45.586;13.782;2024-01-10T00:52:45;-1.10;77.10
45491;DHT22;31237;45.586;13.782;2024-01-10T00:55:11;-1.00;77.20
45491;DHT22;31237;45.586;13.782;2024-01-10T00:57:36;-1.00;77.20
45491;DHT22;31237;45.586;13.782;2024-01-10T01:00:08;-1.10;77.30
45491;DHT22;31237;45.586;13.782;2024-01-10T01:02:34;-1.10;77.30
45491;DHT22;31237;45.586;13.782;2024-01-10T01:05:01;-1.10;77.30
45491;DHT22;31237;45.586;13.782;2024-01-10T01:07:27;-1.10;77.20
45491;DHT22;31237;45.586;13.782;2024-01-10T01:09:53;-1.10;77.40
45491;DHT22;31237;45.586;13.782;2024-01-10T01:12:19;-1.10;77.40
45491;DHT22;31237;45.586;13.782;2024-01-10T01:14:44;-1.10;77.40
45491;DHT22;31237;45.586;13.782;2024-01-10T01:17:10;-1.10;77.30
45491;DHT22;31237;45.586;13.782;2024-01-10T01:19:36;-1.10;77.20
45491;DHT22;31237;45.586;13.782;2024-01-10T01:22:02;-1.10;77.30
45491;DHT22;31237;45.586;13.782;2024-01-10T01:24:28;-1.10;77.30
45491;DHT22;31237;45.586;13.782;2024-01-10T01:26:53;-1.10;77.40
45491;DHT22;31237;45.586;13.782;2024-01-10T01:29:20;-1.10;77.40
45491;DHT22;31237;45.586;13.782;2024-01-10T01:31:46;-1.10;77.50
45491;DHT22;31237;45.586;13.782;2024-01-10T01:34:12;-1.10;77.60
45491;DHT22;31237;45.586;13.782;2024-01-10T01:36:37;-1.20;77.40
45491;DHT22;31237;45.586;13.782;2024-01-10T01:39:03;-1.10;77.40
45491;DHT22;31237;45.586;13.782;2024-01-10T01:41:29;-1.20;77.50
45491;DHT22;31237;45.586;13.782;2024-01-10T01:43:55;-1.20;77.60
45491;DHT22;31237;45.586;13.782;2024-01-10T01:46:21;-1.20;77.70
45491;DHT22;31237;45.586;13.782;2024-01-10T01:48:47;-1.20;77.70
45491;DHT22;31237;45.586;13.782;2024-01-10T01:51:14;-1.20;77.60
45491;DHT22;31237;45.586;13.782;2024-01-10T01:53:42;-1.20;77.50
45491;DHT22;31237;45.586;13.782;2024-01-10T01:56:10;-1.20;77.50
45491;DHT22;31237;45.586;13.782;2024-01-10T01:58:36;-1.20;77.30
45491;DHT22;31237;45.586;13.782;2024-01-10T02:01:04;-1.20;77.20
45491;DHT22;31237;45.586;13.782;2024-01-10T02:03:34;-1.20;77.20
45491;DHT22;31237;45.586;13.782;2024-01-10T02:06:00;-1.20;77.30
45491;DHT22;31237;45.586;13.782;2024-01-10T02:08:29;-1.20;77.20
45491;DHT22;31237;45.586;13.782;2024-01-10T02:10:57;-1.20;77.20
45491;DHT22;31237;45.586;13.782;2024-01-10T02:13:23;-1.20;77.20
45491;DHT22;31237;45.586;13.782;2024-01-10T02:15:49;-1.20;77.40
45491;DHT22;31237;45.586;13.782;2024-01-10T02:18:15;-1.20;77.30
45491;DHT22;31237;45.586;13.782;2024-01-10T02:20:44;-1.20;77.40
45491;DHT22;31237;45.586;13.782;2024-01-10T02:23:10;-1.20;77.40
45491;DHT22;31237;45.586;13.782;2024-01-10T02:25:37;-1.20;77.10
45491;DHT22;31237;45.586;13.782;2024-01-10T02:28:03;-1.20;77.00
45491;DHT22;31237;45.586;13.782;2024-01-10T02:30:29;-1.20;76.90
45491;DHT22;31237;45.586;13.782;2024-01-10T02:32:55;-1.20;76.90
45491;DHT22;31237;45.586;13.782;2024-01-10T02:35:20;-1.20;77.60
45491;DHT22;31237;45.586;13.782;2024-01-10T02:37:46;-1.20;77.20
45491;DHT22;31237;45.586;13.782;2024-01-10T02:40:12;-1.20;77.20
45491;DHT22;31237;45.586;13.782;2024-01-10T02:42:38;-1.20;77.20
45491;DHT22;31237;45.586;13.782;2024-01-10T02:45:05;-1.20;77.00
45491;DHT22;31237;45.586;13.782;2024-01-10T02:47:30;-1.20;77.00
45491;DHT22;31237;45.586;13.782;2024-01-10T02:49:56;-1.20;77.10
45491;DHT22;31237;45.586;13.782;2024-01-10T02:52:22;-1.20;77.20
45491;DHT22;31237;45.586;13.782;2024-01-10T02:54:49;-1.30;77.30
45491;DHT22;31237;45.586;13.782;2024-01-10T02:57:14;-1.20;77.40
45491;DHT22;31237;45.586;13.782;2024-01-10T02:59:40;-1.20;77.50
45491;DHT22;31237;45.586;13.782;2024-01-10T03:02:06;-1.20;77.50
45491;DHT22;31237;45.586;13.782;2024-01-10T03:04:31;-1.20;77.50
45491;DHT22;31237;45.586;13.782;2024-01-10T03:06:57;-1.20;77.70
45491;DHT22;31237;45.586;13.782;2024-01-10T03:09:23;-1.20;77.60
45491;DHT22;31237;45.586;13.782;2024-01-10T03:11:49;-1.20;77.60
45491;DHT22;31237;45.586;13.782;2024-01-10T03:14:15;-1.20;77.70
45491;DHT22;31237;45.586;13.782;2024-01-10T03:16:41;-1.20;77.80
45491;DHT22;31237;45.586;13.782;2024-01-10T03:19:06;-1.20;77.90
45491;DHT22;31237;45.586;13.782;2024-01-10T03:21:32;-1.20;78.00
45491;DHT22;31237;45.586;13.782;2024-01-10T03:24:00;-1.20;78.10
45491;DHT22;31237;45.586;13.782;2024-01-10T03:26:26;-1.20;78.00
45491;DHT22;31237;45.586;13.782;2024-01-10T03:28:53;-1.20;78.60
45491;DHT22;31237;45.586;13.782;2024-01-10T03:31:19;-1.20;78.10
45491;DHT22;31237;45.586;13.782;2024-01-10T03:33:45;-1.20;78.10
45491;DHT22;31237;45.586;13.782;2024-01-10T03:36:13;-1.20;78.10
45491;DHT22;31237;45.586;13.782;2024-01-10T03:38:39;-1.20;78.00
45491;DHT22;31237;45.586;13.782;2024-01-10T03:41:05;-1.20;78.00
45491;DHT22;31237;45.586;13.782;2024-01-10T03:43:31;-1.20;78.30
45491;DHT22;31237;45.586;13.782;2024-01-10T03:45:59;-1.20;78.40
45491;DHT22;31237;45.586;13.782;2024-01-10T03:48:25;-1.20;78.50
45491;DHT22;31237;45.586;13.782;2024-01-10T03:50:51;-1.20;78.50
45491;DHT22;31237;45.586;13.782;2024-01-10T03:53:16;-1.20;78.50
45491;DHT22;31237;45.586;13.782;2024-01-10T03:55:42;-1.30;78.60
45491;DHT22;31237;45.586;13.782;2024-01-10T03:58:08;-1.20;78.60
45491;DHT22;31237;45.586;13.782;2024-01-10T04:00:34;-1.30;78.60
45491;DHT22;31237;45.586;13.782;2024-01-10T04:02:59;-1.30;78.60
45491;DHT22;31237;45.586;13.782;2024-01-10T04:05:25;-1.30;78.60
45491;DHT22;31237;45.586;13.782;2024-01-10T04:07:51;-1.30;78.60
45491;DHT22;31237;45.586;13.782;2024-01-10T04:10:17;-1.30;78.80
45491;DHT22;31237;45.586;13.782;2024-01-10T04:12:44;-1.30;78.90
45491;DHT22;31237;45.586;13.782;2024-01-10T04:15:10;-1.20;78.90
45491;DHT22;31237;45.586;13.782;2024-01-10T04:17:36;-1.30;78.90
45491;DHT22;31237;45.586;13.782;2024-01-10T04:20:03;-1.30;78.90
45491;DHT22;31237;45.586;13.782;2024-01-10T04:22:29;-1.30;78.90
45491;DHT22;31237;45.586;13.782;2024-01-10T04:24:57;-1.30;78.90
45491;DHT22;31237;45.586;13.782;2024-01-10T04:27:27;-1.30;78.90
45491;DHT22;31237;45.586;13.782;2024-01-10T04:29:53;-1.30;78.90
45491;DHT22;31237;45.586;13.782;2024-01-10T04:32:19;-1.30;78.90
45491;DHT22;31237;45.586;13.782;2024-01-10T04:34:45;-1.30;78.90
45491;DHT22;31237;45.586;13.782;2024-01-10T04:37:10;-1.30;78.90
45491;DHT22;31237;45.586;13.782;2024-01-10T04:39:36;-1.30;78.80
45491;DHT22;31237;45.586;13.782;2024-01-10T04:42:06;-1.40;78.70
45491;DHT22;31237;45.586;13.782;2024-01-10T04:44:32;-1.40;78.80
45491;DHT22;31237;45.586;13.782;2024-01-10T04:46:58;-1.40;78.70
45491;DHT22;31237;45.586;13.782;2024-01-10T04:49:24;-1.40;78.70
45491;DHT22;31237;45.586;13.782;2024-01-10T04:51:50;-1.40;78.80
45491;DHT22;31237;45.586;13.782;2024-01-10T04:54:16;-1.40;78.60
45491;DHT22;31237;45.586;13.782;2024-01-10T04:56:42;-1.40;78.70
45491;DHT22;31237;45.586;13.782;2024-01-10T04:59:08;-1.40;78.80
45491;DHT22;31237;45.586;13.782;2024-01-10T05:01:34;-1.40;78.90
45491;DHT22;31237;45.586;13.782;2024-01-10T05:03:59;-1.40;78.70
45491;DHT22;31237;45.586;13.782;2024-01-10T05:06:26;-1.40;78.70
45491;DHT22;31237;45.586;13.782;2024-01-10T05:08:51;-1.40;78.80
45491;DHT22;31237;45.586;13.782;2024-01-10T05:11:17;-1.40;78.80
45491;DHT22;31237;45.586;13.782;2024-01-10T05:13:44;-1.40;78.70
45491;DHT22;31237;45.586;13.782;2024-01-10T05:16:13;-1.40;78.80
45491;DHT22;31237;45.586;13.782;2024-01-10T05:18:38;-1.40;79.00
45491;DHT22;31237;45.586;13.782;2024-01-10T05:21:04;-1.40;78.80
45491;DHT22;31237;45.586;13.782;2024-01-10T05:23:30;-1.30;78.70
45491;DHT22;31237;45.586;13.782;2024-01-10T05:25:56;-1.30;78.60
45491;DHT22;31237;45.586;13.782;2024-01-10T05:28:22;-1.40;78.60
45491;DHT22;31237;45.586;13.782;2024-01-10T05:30:47;-1.40;78.80
45491;DHT22;31237;45.586;13.782;2024-01-10T05:33:13;-1.40;79.40
45491;DHT22;31237;45.586;13.782;2024-01-10T05:35:39;-1.40;78.80
45491;DHT22;31237;45.586;13.782;2024-01-10T05:38:04;-1.30;78.80
45491;DHT22;31237;45.586;13.782;2024-01-10T05:40:30;-1.30;78.80
45491;DHT22;31237;45.586;13.782;2024-01-10T05:43:00;-1.30;78.90
45491;DHT22;31237;45.586;13.782;2024-01-10T05:45:26;-1.30;78.90
45491;DHT22;31237;45.586;13.782;2024-01-10T05:47:52;-1.30;79.10
45491;DHT22;31237;45.586;13.782;2024-01-10T05:50:18;-1.30;79.00
45491;DHT22;31237;45.586;13.782;2024-01-10T05:52:45;-1.30;78.90
45491;DHT22;31237;45.586;13.782;2024-01-10T05:55:11;-1.30;78.70
45491;DHT22;31237;45.586;13.782;2024-01-10T05:57:40;-1.30;78.90
45491;DHT22;31237;45.586;13.782;2024-01-10T06:00:11;-1.30;78.90
45491;DHT22;31237;45.586;13.782;2024-01-10T06:02:41;-1.30;78.80
45491;DHT22;31237;45.586;13.782;2024-01-10T06:05:08;-1.30;78.70
45491;DHT22;31237;45.586;13.782;2024-01-10T06:07:35;-1.20;78.50
45491;DHT22;31237;45.586;13.782;2024-01-10T06:10:01;-1.20;78.10
45491;DHT22;31237;45.586;13.782;2024-01-10T06:12:29;-1.20;77.90
45491;DHT22;31237;45.586;13.782;2024-01-10T06:14:55;-1.20;77.90
45491;DHT22;31237;45.586;13.782;2024-01-10T06:17:21;-1.20;77.60
45491;DHT22;31237;45.586;13.782;2024-01-10T06:19:47;-1.20;77.60
45491;DHT22;31237;45.586;13.782;2024-01-10T06:22:13;-1.20;77.50
45491;DHT22;31237;45.586;13.782;2024-01-10T06:24:39;-1.20;77.60
45491;DHT22;31237;45.586;13.782;2024-01-10T06:27:05;-1.20;77.60
45491;DHT22;31237;45.586;13.782;2024-01-10T06:29:31;-1.20;77.50
45491;DHT22;31237;45.586;13.782;2024-01-10T06:31:57;-1.20;77.50
45491;DHT22;31237;45.586;13.782;2024-01-10T06:34:24;-1.20;77.50
45491;DHT22;31237;45.586;13.782;2024-01-10T06:36:49;-1.20;77.50
45491;DHT22;31237;45.586;13.782;2024-01-10T06:39:15;-1.20;77.40
45491;DHT22;31237;45.586;13.782;2024-01-10T06:41:42;-1.20;77.20
45491;DHT22;31237;45.586;13.782;2024-01-10T06:44:09;-1.10;77.20
45491;DHT22;31237;45.586;13.782;2024-01-10T06:46:35;-1.10;77.20
45491;DHT22;31237;45.586;13.782;2024-01-10T06:49:01;-1.10;77.20
45491;DHT22;31237;45.586;13.782;2024-01-10T06:51:27;-1.10;77.10
45491;DHT22;31237;45.586;13.782;2024-01-10T06:53:53;-1.10;77.10
45491;DHT22;31237;45.586;13.782;2024-01-10T06:56:25;-1.10;77.10
45491;DHT22;31237;45.586;13.782;2024-01-10T06:58:51;-1.10;77.00
45491;DHT22;31237;45.586;13.782;2024-01-10T07:01:19;-1.10;77.00
45491;DHT22;31237;45.586;13.782;2024-01-10T07:03:47;-1.10;77.00
45491;DHT22;31237;45.586;13.782;2024-01-10T07:06:13;-1.00;77.10
45491;DHT22;31237;45.586;13.782;2024-01-10T07:08:40;-1.00;76.90
45491;DHT22;31237;45.586;13.782;2024-01-10T07:11:08;-1.00;76.90
45491;DHT22;31237;45.586;13.782;2024-01-10T07:13:34;-1.00;76.90
45491;DHT22;31237;45.586;13.782;2024-01-10T07:16:00;-1.00;76.80
45491;DHT22;31237;45.586;13.782;2024-01-10T07:18:28;-0.90;77.50
45491;DHT22;31237;45.586;13.782;2024-01-10T07:20:54;-0.90;76.70
45491;DHT22;31237;45.586;13.782;2024-01-10T07:23:20;-0.90;76.50
45491;DHT22;31237;45.586;13.782;2024-01-10T07:25:46;-0.80;76.50
45491;DHT22;31237;45.586;13.782;2024-01-10T07:28:11;-0.80;76.40
45491;DHT22;31237;45.586;13.782;2024-01-10T07:30:37;-0.80;76.40
45491;DHT22;31237;45.586;13.782;2024-01-10T07:33:03;-0.80;76.20
45491;DHT22;31237;45.586;13.782;2024-01-10T07:35:29;-0.70;76.30
45491;DHT22;31237;45.586;13.782;2024-01-10T07:37:58;-0.70;76.00
45491;DHT22;31237;45.586;13.782;2024-01-10T07:40:24;-0.70;75.80
45491;DHT22;31237;45.586;13.782;2024-01-10T07:42:50;-0.60;75.60
45491;DHT22;31237;45.586;13.782;2024-01-10T07:45:16;-0.60;75.20
45491;DHT22;31237;45.586;13.782;2024-01-10T07:47:42;-0.60;74.90
45491;DHT22;31237;45.586;13.782;2024-01-10T07:50:09;-0.50;74.50
45491;DHT22;31237;45.586;13.782;2024-01-10T07:52:36;-0.50;74.60
45491;DHT22;31237;45.586;13.782;2024-01-10T07:55:02;-0.40;74.10
45491;DHT22;31237;45.586;13.782;2024-01-10T07:57:30;-0.40;73.90
45491;DHT22;31237;45.586;13.782;2024-01-10T07:59:56;-0.30;73.80
45491;DHT22;31237;45.586;13.782;2024-01-10T08:02:23;-0.30;73.80
45491;DHT22;31237;45.586;13.782;2024-01-10T08:04:49;-0.20;73.50
45491;DHT22;31237;45.586;13.782;2024-01-10T08:07:14;-0.20;73.70
45491;DHT22;31237;45.586;13.782;2024-01-10T08:09:40;-0.20;73.90
45491;DHT22;31237;45.586;13.782;2024-01-10T08:12:06;-0.10;73.90
45491;DHT22;31237;45.586;13.782;2024-01-10T08:14:32;-0.10;73.80
45491;DHT22;31237;45.586;13.782;2024-01-10T08:16:58;0.00;73.50
45491;DHT22;31237;45.586;13.782;2024-01-10T08:19:26;0.00;73.10
45491;DHT22;31237;45.586;13.782;2024-01-10T08:21:52;0.10;73.00
45491;DHT22;31237;45.586;13.782;2024-01-10T08:24:19;0.10;72.80
45491;DHT22;31237;45.586;13.782;2024-01-10T08:26:44;0.20;72.90
45491;DHT22;31237;45.586;13.782;2024-01-10T08:29:10;0.20;73.10
45491;DHT22;31237;45.586;13.782;2024-01-10T08:31:36;0.30;72.30
45491;DHT22;31237;45.586;13.782;2024-01-10T08:34:02;0.30;72.20
45491;DHT22;31237;45.586;13.782;2024-01-10T08:36:28;0.40;72.00
45491;DHT22;31237;45.586;13.782;2024-01-10T08:38:54;0.50;72.20
45491;DHT22;31237;45.586;13.782;2024-01-10T08:41:19;0.50;71.50
45491;DHT22;31237;45.586;13.782;2024-01-10T08:43:47;0.60;71.60
45491;DHT22;31237;45.586;13.782;2024-01-10T08:46:12;0.60;71.30
45491;DHT22;31237;45.586;13.782;2024-01-10T08:48:38;0.70;71.20
45491;DHT22;31237;45.586;13.782;2024-01-10T08:51:04;0.70;71.00
45491;DHT22;31237;45.586;13.782;2024-01-10T08:53:30;0.70;70.90
45491;DHT22;31237;45.586;13.782;2024-01-10T08:55:56;0.80;70.30
45491;DHT22;31237;45.586;13.782;2024-01-10T08:58:21;0.90;69.80
45491;DHT22;31237;45.586;13.782;2024-01-10T09:00:47;0.80;69.90
45491;DHT22;31237;45.586;13.782;2024-01-10T09:03:13;0.90;69.80
45491;DHT22;31237;45.586;13.782;2024-01-10T09:05:39;0.90;69.90
45491;DHT22;31237;45.586;13.782;2024-01-10T09:08:05;1.00;69.80
45491;DHT22;31237;45.586;13.782;2024-01-10T09:10:31;1.10;70.10
45491;DHT22;31237;45.586;13.782;2024-01-10T09:12:58;1.10;70.00
45491;DHT22;31237;45.586;13.782;2024-01-10T09:15:24;1.20;69.50
45491;DHT22;31237;45.586;13.782;2024-01-10T09:17:50;1.20;69.30
45491;DHT22;31237;45.586;13.782;2024-01-10T09:20:17;1.20;68.50
45491;DHT22;31237;45.586;13.782;2024-01-10T09:22:43;1.30;68.50
45491;DHT22;31237;45.586;13.782;2024-01-10T09:25:09;1.40;68.30
45491;DHT22;31237;45.586;13.782;2024-01-10T09:27:39;1.40;68.40
45491;DHT22;31237;45.586;13.782;2024-01-10T09:30:10;1.40;68.50
45491;DHT22;31237;45.586;13.782;2024-01-10T09:32:36;1.50;67.50
45491;DHT22;31237;45.586;13.782;2024-01-10T09:35:02;1.50;67.70
45491;DHT22;31237;45.586;13.782;2024-01-10T09:37:31;1.60;66.80
45491;DHT22;31237;45.586;13.782;2024-01-10T09:40:00;1.60;66.60
45491;DHT22;31237;45.586;13.782;2024-01-10T09:42:26;1.70;66.80
45491;DHT22;31237;45.586;13.782;2024-01-10T09:44:52;1.70;66.60
45491;DHT22;31237;45.586;13.782;2024-01-10T09:47:19;1.80;66.90
45491;DHT22;31237;45.586;13.782;2024-01-10T09:49:46;1.80;66.80
45491;DHT22;31237;45.586;13.782;2024-01-10T09:52:24;1.90;66.40
45491;DHT22;31237;45.586;13.782;2024-01-10T09:54:54;2.00;66.60
45491;DHT22;31237;45.586;13.782;2024-01-10T09:57:20;2.00;66.40
45491;DHT22;31237;45.586;13.782;2024-01-10T09:59:49;2.10;66.10
45491;DHT22;31237;45.586;13.782;2024-01-10T10:02:18;2.10;65.50
45491;DHT22;31237;45.586;13.782;2024-01-10T10:07:46;2.20;64.60
45491;DHT22;31237;45.586;13.782;2024-01-10T10:10:12;2.20;63.80
45491;DHT22;31237;45.586;13.782;2024-01-10T10:12:51;2.20;64.00
45491;DHT22;31237;45.586;13.782;2024-01-10T10:15:21;2.30;64.00
45491;DHT22;31237;45.586;13.782;2024-01-10T10:17:49;2.20;63.60
45491;DHT22;31237;45.586;13.782;2024-01-10T10:20:20;2.30;64.20
45491;DHT22;31237;45.586;13.782;2024-01-10T10:25:30;2.40;64.10
45491;DHT22;31237;45.586;13.782;2024-01-10T10:27:57;2.40;64.40
45491;DHT22;31237;45.586;13.782;2024-01-10T10:30:23;2.40;64.10
45491;DHT22;31237;45.586;13.782;2024-01-10T10:32:49;2.40;63.60
45491;DHT22;31237;45.586;13.782;2024-01-10T10:35:15;2.40;63.30
45491;DHT22;31237;45.586;13.782;2024-01-10T10:37:41;2.40;63.50
45491;DHT22;31237;45.586;13.782;2024-01-10T10:40:07;2.40;63.70
45491;DHT22;31237;45.586;13.782;2024-01-10T10:42:45;2.40;63.70
45491;DHT22;31237;45.586;13.782;2024-01-10T10:45:17;2.40;63.00
45491;DHT22;31237;45.586;13.782;2024-01-10T10:47:44;2.50;63.30
45491;DHT22;31237;45.586;13.782;2024-01-10T10:50:24;2.50;63.40
45491;DHT22;31237;45.586;13.782;2024-01-10T10:52:50;2.50;63.30
45491;DHT22;31237;45.586;13.782;2024-01-10T10:55:18;2.60;63.10
45491;DHT22;31237;45.586;13.782;2024-01-10T10:57:45;2.60;62.40
45491;DHT22;31237;45.586;13.782;2024-01-10T11:00:13;2.60;62.70
45491;DHT22;31237;45.586;13.782;2024-01-10T11:02:41;2.60;62.80
45491;DHT22;31237;45.586;13.782;2024-01-10T11:05:08;2.60;62.40
45491;DHT22;31237;45.586;13.782;2024-01-10T11:07:42;2.70;62.20
45491;DHT22;31237;45.586;13.782;2024-01-10T11:10:21;2.70;62.10
45491;DHT22;31237;45.586;13.782;2024-01-10T11:24:24;2.80;61.90
45491;DHT22;31237;45.586;13.782;2024-01-10T11:26:50;2.80;62.10
45491;DHT22;31237;45.586;13.782;2024-01-10T11:29:16;2.80;61.90
45491;DHT22;31237;45.586;13.782;2024-01-10T11:31:50;2.80;62.20
45491;DHT22;31237;45.586;13.782;2024-01-10T11:34:16;2.90;61.80
45491;DHT22;31237;45.586;13.782;2024-01-10T11:37:11;2.90;61.50
45491;DHT22;31237;45.586;13.782;2024-01-10T11:39:41;2.90;61.80
45491;DHT22;31237;45.586;13.782;2024-01-10T11:42:08;2.90;61.90
45491;DHT22;31237;45.586;13.782;2024-01-10T11:44:55;2.90;62.00
45491;DHT22;31237;45.586;13.782;2024-01-10T11:47:21;2.90;61.60
45491;DHT22;31237;45.586;13.782;2024-01-10T11:49:55;2.90;61.70
45491;DHT22;31237;45.586;13.782;2024-01-10T11:52:32;3.00;61.70
45491;DHT22;31237;45.586;13.782;2024-01-10T11:54:59;3.00;61.80
45491;DHT22;31237;45.586;13.782;2024-01-10T11:57:27;3.00;61.40
45491;DHT22;31237;45.586;13.782;2024-01-10T11:59:54;3.00;62.10
45491;DHT22;31237;45.586;13.782;2024-01-10T12:02:29;3.00;61.60
45491;DHT22;31237;45.586;13.782;2024-01-10T12:04:55;3.00;61.40
45491;DHT22;31237;45.586;13.782;2024-01-10T12:07:21;3.00;61.20
45491;DHT22;31237;45.586;13.782;2024-01-10T12:09:56;3.00;61.60
45491;DHT22;31237;45.586;13.782;2024-01-10T12:12:22;3.00;61.80
45491;DHT22;31237;45.586;13.782;2024-01-10T12:14:47;3.00;61.80
45491;DHT22;31237;45.586;13.782;2024-01-10T12:17:13;3.00;61.20
45491;DHT22;31237;45.586;13.782;2024-01-10T12:19:39;2.90;61.60
45491;DHT22;31237;45.586;13.782;2024-01-10T12:22:06;3.00;62.00
45491;DHT22;31237;45.586;13.782;2024-01-10T12:24:32;3.00;61.80
45491;DHT22;31237;45.586;13.782;2024-01-10T12:26:58;3.00;61.80
45491;DHT22;31237;45.586;13.782;2024-01-10T12:29:25;3.00;61.90
45491;DHT22;31237;45.586;13.782;2024-01-10T12:31:51;3.00;62.10
45491;DHT22;31237;45.586;13.782;2024-01-10T12:34:17;3.10;61.90
45491;DHT22;31237;45.586;13.782;2024-01-10T12:36:43;3.00;61.50
45491;DHT22;31237;45.586;13.782;2024-01-10T12:39:10;3.00;61.70
45491;DHT22;31237;45.586;13.782;2024-01-10T12:41:37;3.00;62.00
45491;DHT22;31237;45.586;13.782;2024-01-10T12:44:03;3.00;62.40
45491;DHT22;31237;45.586;13.782;2024-01-10T12:46:31;3.00;62.50
45491;DHT22;31237;45.586;13.782;2024-01-10T12:49:04;3.00;63.30
45491;DHT22;31237;45.586;13.782;2024-01-10T12:51:31;3.00;62.70
45491;DHT22;31237;45.586;13.782;2024-01-10T12:53:58;3.00;63.00
45491;DHT22;31237;45.586;13.782;2024-01-10T12:56:25;3.00;63.20
45491;DHT22;31237;45.586;13.782;2024-01-10T12:58:51;3.00;62.90
45491;DHT22;31237;45.586;13.782;2024-01-10T13:01:17;3.00;62.90
45491;DHT22;31237;45.586;13.782;2024-01-10T13:03:43;3.00;62.90
45491;DHT22;31237;45.586;13.782;2024-01-10T13:06:09;3.10;63.50
45491;DHT22;31237;45.586;13.782;2024-01-10T13:08:36;3.00;63.20
45491;DHT22;31237;45.586;13.782;2024-01-10T13:11:02;3.00;63.10
45491;DHT22;31237;45.586;13.782;2024-01-10T13:13:36;3.00;62.60
45491;DHT22;31237;45.586;13.782;2024-01-10T13:16:02;3.00;62.90
45491;DHT22;31237;45.586;13.782;2024-01-10T13:18:28;3.00;63.10
45491;DHT22;31237;45.586;13.782;2024-01-10T13:20:54;2.90;63.20
45491;DHT22;31237;45.586;13.782;2024-01-10T13:23:20;2.90;63.20
45491;DHT22;31237;45.586;13.782;2024-01-10T13:25:50;2.90;63.10
45491;DHT22;31237;45.586;13.782;2024-01-10T13:28:16;2.90;63.20
45491;DHT22;31237;45.586;13.782;2024-01-10T13:30:42;2.90;62.90
45491;DHT22;31237;45.586;13.782;2024-01-10T13:33:11;2.90;63.30
45491;DHT22;31237;45.586;13.782;2024-01-10T13:35:37;2.80;63.30
45491;DHT22;31237;45.586;13.782;2024-01-10T13:38:04;2.80;63.50
45491;DHT22;31237;45.586;13.782;2024-01-10T13:40:30;2.80;63.60
45491;DHT22;31237;45.586;13.782;2024-01-10T13:42:57;2.80;63.60
45491;DHT22;31237;45.586;13.782;2024-01-10T13:45:23;2.80;63.40
45491;DHT22;31237;45.586;13.782;2024-01-10T13:47:49;2.70;63.30
45491;DHT22;31237;45.586;13.782;2024-01-10T13:50:15;2.70;63.00
45491;DHT22;31237;45.586;13.782;2024-01-10T13:52:41;2.70;63.00
45491;DHT22;31237;45.586;13.782;2024-01-10T13:55:08;2.70;62.80
45491;DHT22;31237;45.586;13.782;2024-01-10T13:57:35;2.70;63.10
45491;DHT22;31237;45.586;13.782;2024-01-10T14:00:01;2.60;63.20
45491;DHT22;31237;45.586;13.782;2024-01-10T14:02:27;2.60;62.90
45491;DHT22;31237;45.586;13.782;2024-01-10T14:04:53;2.60;62.80
45491;DHT22;31237;45.586;13.782;2024-01-10T14:07:32;2.60;62.60
45491;DHT22;31237;45.586;13.782;2024-01-10T14:09:58;2.50;62.90
45491;DHT22;31237;45.586;13.782;2024-01-10T14:12:23;2.50;63.10
45491;DHT22;31237;45.586;13.782;2024-01-10T14:14:49;2.40;63.10
45491;DHT22;31237;45.586;13.782;2024-01-10T14:17:16;2.40;63.30
45491;DHT22;31237;45.586;13.782;2024-01-10T14:19:41;2.40;63.10
45491;DHT22;31237;45.586;13.782;2024-01-10T14:22:09;2.40;63.20
45491;DHT22;31237;45.586;13.782;2024-01-10T14:24:35;2.40;63.30
45491;DHT22;31237;45.586;13.782;2024-01-10T14:27:00;2.40;63.20
45491;DHT22;31237;45.586;13.782;2024-01-10T14:29:26;2.30;63.10
45491;DHT22;31237;45.586;13.782;2024-01-10T14:31:52;2.30;63.20
45491;DHT22;31237;45.586;13.782;2024-01-10T14:34:18;2.30;63.20
45491;DHT22;31237;45.586;13.782;2024-01-10T14:36:44;2.20;63.10
45491;DHT22;31237;45.586;13.782;2024-01-10T14:39:10;2.20;63.20
45491;DHT22;31237;45.586;13.782;2024-01-10T14:41:39;2.20;63.30
45491;DHT22;31237;45.586;13.782;2024-01-10T14:44:07;2.10;63.30
45491;DHT22;31237;45.586;13.782;2024-01-10T14:46:33;2.10;63.10
45491;DHT22;31237;45.586;13.782;2024-01-10T14:48:59;2.00;63.20
45491;DHT22;31237;45.586;13.782;2024-01-10T14:51:25;2.00;63.20
45491;DHT22;31237;45.586;13.782;2024-01-10T14:53:50;2.00;63.30
45491;DHT22;31237;45.586;13.782;2024-01-10T14:56:17;1.90;63.30
45491;DHT22;31237;45.586;13.782;2024-01-10T14:58:43;1.90;63.30
45491;DHT22;31237;45.586;13.782;2024-01-10T15:01:09;1.90;63.40
45491;DHT22;31237;45.586;13.782;2024-01-10T15:03:35;1.90;63.50
45491;DHT22;31237;45.586;13.782;2024-01-10T15:06:03;1.80;63.40
45491;DHT22;31237;45.586;13.782;2024-01-10T15:08:29;1.80;63.40
45491;DHT22;31237;45.586;13.782;2024-01-10T15:10:55;1.70;63.30
45491;DHT22;31237;45.586;13.782;2024-01-10T15:13:21;1.70;63.50
45491;DHT22;31237;45.586;13.782;2024-01-10T15:15:47;1.60;63.70
45491;DHT22;31237;45.586;13.782;2024-01-10T15:18:13;1.60;63.80
45491;DHT22;31237;45.586;13.782;2024-01-10T15:20:40;1.50;63.90
45491;DHT22;31237;45.586;13.782;2024-01-10T15:23:06;1.50;64.00
45491;DHT22;31237;45.586;13.782;2024-01-10T15:25:32;1.50;64.10
45491;DHT22;31237;45.586;13.782;2024-01-10T15:27:57;1.40;63.70
45491;DHT22;31237;45.586;13.782;2024-01-10T15:30:25;1.40;63.60
45491;DHT22;31237;45.586;13.782;2024-01-10T15:32:52;1.30;63.90
45491;DHT22;31237;45.586;13.782;2024-01-10T15:35:17;1.30;64.00
45491;DHT22;31237;45.586;13.782;2024-01-10T15:37:46;1.30;64.10